Time;durP1;ratioP1;P1;durP2;ratioP2;P2;SDS_P1;SDS_P2;PMS_P1;PMS_P2;Temp;Humidity;BMP_temperature;BMP_pressure;BME280_temperature;BME280_humidity;BME280_pressure;Samples;Min_cycle;Max_cycle;Signal;HPM_P1;HPM_P2
2022/11/15 00:00:20;;;;;;;42.03;29.77;;;;;;;5.77;100.00;100662.41;6121713;23;20014;-84
2022/11/15 00:02:45;;;;;;;38.00;29.42;;;;;;;5.82;100.00;100667.53;6094748;23;20444;-83
2022/11/15 00:05:10;;;;;;;39.13;28.73;;;;;;;5.77;100.00;100654.47;6122054;23;20033;-83
2022/11/15 00:07:35;;;;;;;41.40;29.55;;;;;;;5.84;100.00;100658.59;6122480;23;20472;-84
2022/11/15 00:10:01;;;;;;;39.95;28.52;;;;;;;5.85;100.00;100655.06;6096781;23;20025;-84
2022/11/15 00:12:28;;;;;;;40.60;29.42;;;;;;;5.91;100.00;100668.06;6097515;23;20344;-82
2022/11/15 00:14:53;;;;;;;39.80;30.17;;;;;;;5.95;100.00;100661.78;6123271;23;20006;-82
2022/11/15 00:17:18;;;;;;;39.30;30.02;;;;;;;5.96;100.00;100652.94;6123011;23;20361;-83
2022/11/15 00:19:44;;;;;;;37.38;28.98;;;;;;;5.99;100.00;100657.25;6123529;23;20081;-83
2022/11/15 00:22:10;;;;;;;43.00;31.38;;;;;;;6.08;100.00;100656.94;6097061;23;20014;-83
2022/11/15 00:24:35;;;;;;;39.40;29.92;;;;;;;6.09;100.00;100663.94;6097511;23;20010;-83
2022/11/15 00:27:00;;;;;;;38.25;29.50;;;;;;;6.10;100.00;100659.50;6120561;23;20385;-84
2022/11/15 00:29:25;;;;;;;39.42;29.30;;;;;;;6.11;100.00;100656.84;6124460;23;20421;-84
2022/11/15 00:31:51;;;;;;;40.70;28.73;;;;;;;6.13;100.00;100652.34;6097206;23;20090;-84
2022/11/15 00:34:16;;;;;;;41.33;29.15;;;;;;;6.19;100.00;100654.78;6122983;23;20038;-83
2022/11/15 00:36:41;;;;;;;41.97;30.08;;;;;;;6.21;100.00;100646.78;6097477;23;20002;-83
2022/11/15 00:39:06;;;;;;;36.50;28.17;;;;;;;6.18;100.00;100645.09;6123458;23;20045;-83
2022/11/15 00:41:32;;;;;;;39.97;29.20;;;;;;;6.26;100.00;100643.97;6121528;23;20041;-82
2022/11/15 00:43:57;;;;;;;39.38;29.60;;;;;;;6.30;100.00;100657.03;6094954;23;20010;-82
2022/11/15 00:46:22;;;;;;;40.17;28.63;;;;;;;6.36;100.00;100643.59;6120991;23;20752;-83
2022/11/15 00:48:47;;;;;;;42.30;30.98;;;;;;;6.38;100.00;100649.69;6120297;23;20001;-82
2022/11/15 00:51:13;;;;;;;39.17;29.17;;;;;;;6.38;100.00;100640.88;6123150;23;20006;-82
2022/11/15 00:53:38;;;;;;;40.38;30.00;;;;;;;6.41;100.00;100646.94;6123482;23;20211;-83
2022/11/15 00:56:03;;;;;;;40.25;30.70;;;;;;;6.43;100.00;100650.38;6121423;23;20022;-83
2022/11/15 00:58:29;;;;;;;42.50;31.63;;;;;;;6.42;100.00;100635.44;6121498;23;20018;-83
2022/11/15 01:00:54;;;;;;;42.08;30.80;;;;;;;6.42;100.00;100642.50;6120890;23;20084;-84
2022/11/15 01:03:20;;;;;;;43.35;32.22;;;;;;;6.47;100.00;100638.75;6119737;23;20008;-84
2022/11/15 01:05:45;;;;;;;47.50;32.55;;;;;;;6.49;100.00;100641.38;6121089;23;20064;-82
2022/11/15 01:08:15;;;;;;;45.60;32.58;;;;;;;6.52;100.00;100648.31;6094093;23;20013;-82
2022/11/15 01:10:41;;;;;;;46.55;33.72;;;;;;;6.53;100.00;100637.69;6121046;23;20081;-83
2022/11/15 01:13:07;;;;;;;51.75;34.88;;;;;;;6.57;100.00;100635.78;6120087;23;20440;-82
2022/11/15 01:15:32;;;;;;;47.78;33.95;;;;;;;6.54;100.00;100625.31;6120225;23;20006;-82
2022/11/15 01:17:57;;;;;;;45.47;32.35;;;;;;;6.56;100.00;100628.75;6121109;23;20148;-85
2022/11/15 01:20:22;;;;;;;49.10;33.42;;;;;;;6.67;100.00;100616.00;6122236;23;20458;-83
2022/11/15 01:22:48;;;;;;;48.78;34.28;;;;;;;6.59;100.00;100616.28;6122952;23;20017;-82
2022/11/15 01:25:13;;;;;;;49.10;34.72;;;;;;;6.60;100.00;100622.44;6095828;23;20029;-83
2022/11/15 01:27:39;;;;;;;57.83;36.15;;;;;;;6.69;100.00;100619.47;6121325;23;19986;-83
2022/11/15 01:30:04;;;;;;;53.40;36.47;;;;;;;6.74;100.00;100628.09;6122572;23;20041;-83
2022/11/15 01:32:30;;;;;;;61.00;36.58;;;;;;;6.70;100.00;100619.41;6122030;23;20076;-84
2022/11/15 01:34:55;;;;;;;55.17;37.63;;;;;;;6.72;100.00;100614.91;6120955;23;20073;-84
2022/11/15 01:37:21;;;;;;;62.13;38.88;;;;;;;6.76;100.00;100617.44;6096349;23;20012;-85
2022/11/15 01:39:46;;;;;;;63.15;38.28;;;;;;;6.67;100.00;100600.13;6122465;23;20040;-85
2022/11/15 01:42:13;;;;;;;65.65;38.50;;;;;;;6.76;100.00;100602.41;6123066;23;20006;-85
2022/11/15 01:44:49;;;;;;;63.60;38.63;;;;;;;6.85;100.00;100609.13;6098361;23;20222;-85
2022/11/15 01:47:28;;;;;;;66.50;39.08;;;;;;;6.87;100.00;100610.81;6123424;23;20026;-85
2022/11/15 01:50:03;;;;;;;70.22;41.53;;;;;;;6.88;100.00;100614.31;6123540;23;20009;-85
2022/11/15 01:52:33;;;;;;;64.85;39.85;;;;;;;6.83;100.00;100603.06;6123763;23;20010;-84
2022/11/15 01:55:18;;;;;;;62.30;39.03;;;;;;;6.86;100.00;100603.78;6126824;23;20092;-85
2022/11/15 01:57:47;;;;;;;67.88;40.70;;;;;;;6.89;100.00;100598.34;6146171;23;19994;-84
2022/11/15 02:00:13;;;;;;;64.78;39.83;;;;;;;6.86;100.00;100589.72;6146109;23;20049;-84
2022/11/15 02:02:39;;;;;;;66.07;42.05;;;;;;;7.06;100.00;100604.78;6117325;23;20029;-84
2022/11/15 02:05:05;;;;;;;75.88;41.63;;;;;;;6.97;100.00;100593.63;6130232;23;20107;-83
2022/11/15 02:07:33;;;;;;;73.03;41.35;;;;;;;7.05;100.00;100595.13;6122346;23;20044;-83
2022/11/15 02:10:04;;;;;;;76.25;44.30;;;;;;;7.07;100.00;100572.97;6126229;23;20092;-83
2022/11/15 02:12:30;;;;;;;81.40;45.17;;;;;;;7.18;100.00;100588.41;6122300;23;20114;-84
2022/11/15 02:14:56;;;;;;;75.82;45.15;;;;;;;7.35;100.00;100590.34;6122959;23;20425;-84
2022/11/15 02:17:32;;;;;;;78.15;45.95;;;;;;;7.35;100.00;100587.69;6124631;23;20001;-85
2022/11/15 02:20:30;;;;;;;80.35;45.85;;;;;;;7.40;100.00;100585.75;6123830;23;20567;-84
2022/11/15 02:23:20;;;;;;;79.53;44.63;;;;;;;7.45;100.00;100591.72;6123055;23;20117;-85
2022/11/15 02:26:13;;;;;;;79.55;45.38;;;;;;;7.52;100.00;100582.56;6121885;23;20088;-85
2022/11/15 02:28:55;;;;;;;85.47;48.55;;;;;;;7.62;100.00;100578.59;6122102;23;20069;-84
2022/11/15 02:31:36;;;;;;;79.07;46.50;;;;;;;7.65;100.00;100594.38;6121446;23;20030;-85
2022/11/15 02:34:24;;;;;;;81.30;47.75;;;;;;;7.72;100.00;100579.91;6120983;23;20073;-83
2022/11/15 02:37:06;;;;;;;77.93;46.83;;;;;;;7.80;100.00;100581.38;6120470;23;20033;-83
2022/11/15 02:39:42;;;;;;;82.45;48.08;;;;;;;7.80;100.00;100576.94;6097837;23;20081;-84
2022/11/15 02:45:04;;;;;;;76.57;47.20;;;;;;;7.84;100.00;100575.88;6123457;23;20021;-85
2022/11/15 02:47:35;;;;;;;81.10;46.65;;;;;;;7.86;100.00;100576.69;6120500;23;20417;-85
2022/11/15 02:50:09;;;;;;;80.35;46.05;;;;;;;7.85;100.00;100572.28;6121692;23;20010;-83
2022/11/15 02:52:35;;;;;;;77.93;47.60;;;;;;;7.83;100.00;100568.88;6120637;23;20013;-83
2022/11/15 02:55:01;;;;;;;76.13;45.17;;;;;;;7.94;100.00;100569.25;6122738;23;20006;-85
2022/11/15 02:57:50;;;;;;;76.35;46.05;;;;;;;7.95;100.00;100568.31;6121601;23;20013;-85
2022/11/15 03:00:18;;;;;;;81.10;46.88;;;;;;;7.99;100.00;100556.66;6121980;23;20021;-85
2022/11/15 03:02:46;;;;;;;82.00;46.75;;;;;;;8.04;100.00;100559.09;6121692;23;20001;-84
2022/11/15 03:05:42;;;;;;;86.00;46.55;;;;;;;7.99;100.00;100547.84;6123017;23;20081;-85
2022/11/15 03:08:22;;;;;;;78.60;45.60;;;;;;;8.03;100.00;100530.88;6111863;23;20439;-84
2022/11/15 03:11:06;;;;;;;82.63;47.25;;;;;;;8.08;100.00;100542.13;6123415;23;20010;-84
2022/11/15 03:13:37;;;;;;;84.85;45.35;;;;;;;8.07;100.00;100547.47;6122263;23;20017;-85
2022/11/15 03:16:14;;;;;;;81.65;46.15;;;;;;;8.21;100.00;100539.78;6120660;23;20009;-85
2022/11/15 03:19:07;;;;;;;84.40;46.00;;;;;;;8.19;100.00;100550.47;6122433;23;20006;-85
2022/11/15 03:21:34;;;;;;;90.20;47.13;;;;;;;8.28;100.00;100541.22;6109992;23;20010;-85
2022/11/15 03:24:05;;;;;;;84.63;45.65;;;;;;;8.19;100.00;100546.94;6122193;23;20016;-85
2022/11/15 03:26:33;;;;;;;79.25;44.03;;;;;;;8.20;100.00;100548.66;6122821;23;20201;-85
2022/11/15 03:29:29;;;;;;;80.20;45.28;;;;;;;8.19;100.00;100552.22;6123979;23;20002;-85
2022/11/15 03:32:00;;;;;;;78.70;45.58;;;;;;;8.22;100.00;100555.59;6123286;23;20029;-80
2022/11/15 03:34:39;;;;;;;81.68;45.05;;;;;;;8.26;100.00;100556.34;6121970;23;20095;-83
2022/11/15 03:37:06;;;;;;;89.72;47.13;;;;;;;8.22;100.00;100552.94;6120081;23;20373;-85
2022/11/15 03:39:33;;;;;;;84.47;45.35;;;;;;;8.24;100.00;100556.41;6124317;23;20006;-84
2022/11/15 03:42:26;;;;;;;86.07;45.47;;;;;;;8.25;100.00;100546.66;6122878;23;20077;-85
2022/11/15 03:45:06;;;;;;;84.40;46.70;;;;;;;8.28;100.00;100557.13;6096137;23;20014;-84
2022/11/15 03:47:41;;;;;;;90.47;47.42;;;;;;;8.27;100.00;100554.53;6121658;23;20006;-85
2022/11/15 03:50:12;;;;;;;87.47;45.65;;;;;;;8.28;100.00;100559.78;6123297;23;20010;-84
2022/11/15 03:52:40;;;;;;;91.82;46.97;;;;;;;8.27;100.00;100555.41;6124770;23;20392;-85
2022/11/15 03:55:09;;;;;;;89.88;48.00;;;;;;;8.26;100.00;100558.97;6122346;23;20367;-84
2022/11/15 03:57:34;;;;;;;89.22;44.90;;;;;;;8.30;100.00;100555.25;6098150;23;20010;-85
2022/11/15 03:59:59;;;;;;;93.85;47.25;;;;;;;8.27;100.00;100535.97;6122689;23;20010;-84
2022/11/15 04:02:24;;;;;;;91.40;47.20;;;;;;;8.32;100.00;100544.56;6123737;23;20009;-85
2022/11/15 04:04:50;;;;;;;98.68;48.03;;;;;;;8.39;100.00;100541.59;6122501;23;20012;-84
2022/11/15 04:07:15;;;;;;;86.03;46.53;;;;;;;8.36;100.00;100540.84;6120709;23;20012;-84
2022/11/15 04:12:30;;;;;;;85.18;45.63;;;;;;;8.32;100.00;100537.50;6122721;23;20028;-84
2022/11/15 04:15:08;;;;;;;82.25;45.58;;;;;;;8.31;100.00;100538.41;6121049;23;20009;-83
2022/11/15 04:17:41;;;;;;;85.53;45.72;;;;;;;8.36;100.00;100547.03;6121713;23;20012;-83
2022/11/15 04:25:44;;;;;;;87.07;46.38;;;;;;;8.34;100.00;100535.63;6125504;23;20024;-85
2022/11/15 04:28:11;;;;;;;87.40;46.67;;;;;;;8.31;100.00;100542.84;6125117;23;20381;-85
2022/11/15 04:30:36;;;;;;;91.70;47.95;;;;;;;8.35;100.00;100540.00;6127366;23;20312;-84
2022/11/15 04:33:02;;;;;;;89.03;48.15;;;;;;;8.38;100.00;100537.22;6129128;23;20002;-83
2022/11/15 04:35:28;;;;;;;91.28;48.63;;;;;;;8.41;100.00;100545.06;6127510;23;20036;-84
2022/11/15 04:37:54;;;;;;;90.30;46.83;;;;;;;8.35;100.00;100536.47;6127246;23;20376;-84
2022/11/15 04:40:19;;;;;;;89.88;46.45;;;;;;;8.41;100.00;100550.38;6101305;23;20002;-84
2022/11/15 04:42:44;;;;;;;85.55;47.80;;;;;;;8.44;100.00;100552.00;6125515;23;20117;-85
2022/11/15 04:45:10;;;;;;;92.35;48.30;;;;;;;8.45;100.00;100548.44;6122313;23;20006;-84
2022/11/15 04:47:35;;;;;;;88.15;48.17;;;;;;;8.40;100.00;100553.06;6097142;23;20089;-85
2022/11/15 04:50:01;;;;;;;93.43;47.70;;;;;;;8.42;100.00;100543.25;6122498;23;20328;-85
2022/11/15 04:52:26;;;;;;;90.63;46.67;;;;;;;8.40;100.00;100546.00;6097274;23;20357;-84
2022/11/15 04:54:51;;;;;;;94.38;45.90;;;;;;;8.42;100.00;100548.56;6124227;23;20008;-85
2022/11/15 04:57:17;;;;;;;83.50;46.47;;;;;;;8.46;100.00;100542.19;6123478;23;20085;-84
2022/11/15 04:59:42;;;;;;;84.85;46.92;;;;;;;8.50;100.00;100537.59;6123914;23;20330;-84
2022/11/15 05:02:07;;;;;;;84.53;46.25;;;;;;;8.44;100.00;100544.03;6123745;23;20005;-84
2022/11/15 05:04:32;;;;;;;89.63;47.13;;;;;;;8.46;100.00;100542.19;6123090;23;20033;-84
2022/11/15 05:06:58;;;;;;;89.78;45.80;;;;;;;8.44;100.00;100536.06;6123013;23;20057;-85
2022/11/15 05:09:23;;;;;;;88.00;45.65;;;;;;;8.47;100.00;100541.25;6098540;23;20470;-84
2022/11/15 05:11:48;;;;;;;86.85;44.92;;;;;;;8.48;100.00;100541.19;6123673;23;20013;-85
2022/11/15 05:14:14;;;;;;;92.97;46.70;;;;;;;8.47;100.00;100538.59;6121534;23;20013;-84
2022/11/15 05:16:40;;;;;;;82.25;43.28;;;;;;;8.44;100.00;100534.31;6120180;23;20010;-84
2022/11/15 05:19:06;;;;;;;84.70;44.20;;;;;;;8.47;100.00;100536.81;6121020;23;20360;-83
2022/11/15 05:21:31;;;;;;;88.78;44.08;;;;;;;8.50;100.00;100541.13;6121863;23;20006;-84
2022/11/15 05:23:57;;;;;;;82.05;43.95;;;;;;;8.48;100.00;100538.53;6121541;23;20010;-84
2022/11/15 05:26:22;;;;;;;79.53;42.42;;;;;;;8.51;100.00;100534.88;6120129;23;20814;-84
2022/11/15 05:28:55;;;;;;;94.05;45.20;;;;;;;8.47;100.00;100518.22;6121149;23;19998;-85
2022/11/15 05:31:21;;;;;;;84.40;43.38;;;;;;;8.60;100.00;100513.19;6095149;23;20017;-84
2022/11/15 05:33:46;;;;;;;91.53;45.28;;;;;;;8.63;100.00;100515.72;6121044;23;20001;-83
2022/11/15 05:36:31;;;;;;;86.35;43.55;;;;;;;8.61;100.00;100524.66;6119522;23;20013;-84
2022/11/15 05:38:56;;;;;;;80.18;42.47;;;;;;;8.67;100.00;100527.03;6120536;23;20021;-85
2022/11/15 05:41:29;;;;;;;82.38;42.72;;;;;;;8.57;100.00;100528.41;6120189;23;20388;-84
2022/11/15 05:43:54;;;;;;;84.82;42.00;;;;;;;8.60;100.00;100521.16;6119244;23;20010;-84
2022/11/15 05:46:20;;;;;;;77.07;41.10;;;;;;;8.53;100.00;100518.88;6119725;23;20033;-83
2022/11/15 05:48:49;;;;;;;86.30;42.72;;;;;;;8.51;100.00;100518.94;6120353;23;20089;-84
2022/11/15 05:51:18;;;;;;;84.88;41.85;;;;;;;8.54;100.00;100528.56;6121296;23;20008;-84
2022/11/15 05:53:44;;;;;;;80.90;42.13;;;;;;;8.53;100.00;100522.41;6121591;23;20332;-84
2022/11/15 05:56:10;;;;;;;81.90;42.17;;;;;;;8.53;100.00;100524.16;6119082;23;20006;-85
2022/11/15 05:58:36;;;;;;;81.88;39.25;;;;;;;8.57;100.00;100531.06;6121080;23;20065;-85
2022/11/15 06:01:02;;;;;;;75.75;40.70;;;;;;;8.65;100.00;100539.50;6094523;23;20012;-85
2022/11/15 06:03:28;;;;;;;71.18;41.03;;;;;;;8.79;100.00;100537.06;6120069;23;20389;-84
2022/11/15 06:05:53;;;;;;;76.68;40.97;;;;;;;8.74;100.00;100541.75;6120014;23;20134;-83
2022/11/15 06:08:18;;;;;;;75.45;39.58;;;;;;;8.76;100.00;100544.31;6120612;23;20002;-85
2022/11/15 06:10:44;;;;;;;74.28;41.05;;;;;;;8.77;100.00;100552.19;6094000;23;20021;-82
2022/11/15 06:13:09;;;;;;;80.97;41.80;;;;;;;8.76;100.00;100550.47;6119330;23;20144;-82
2022/11/15 06:15:34;;;;;;;78.18;41.33;;;;;;;8.71;100.00;100532.13;6119239;23;20016;-81
2022/11/15 06:18:00;;;;;;;77.68;41.65;;;;;;;8.80;100.00;100549.41;6121185;23;20733;-81
2022/11/15 06:20:27;;;;;;;81.47;42.13;;;;;;;8.78;100.00;100545.09;6120623;23;20519;-82
2022/11/15 06:23:00;;;;;;;79.10;43.50;;;;;;;8.77;100.00;100546.88;6118116;23;20010;-83
2022/11/15 06:25:27;;;;;;;80.05;42.28;;;;;;;8.81;100.00;100556.41;6118265;23;20010;-82
2022/11/15 06:27:53;;;;;;;79.50;42.58;;;;;;;8.77;100.00;100543.38;6119202;23;20014;-82
2022/11/15 06:30:19;;;;;;;75.85;41.47;;;;;;;8.73;100.00;100543.50;6093263;23;20005;-83
2022/11/15 06:32:44;;;;;;;73.95;42.05;;;;;;;8.76;100.00;100557.59;6093150;23;20060;-82
2022/11/15 06:35:10;;;;;;;71.80;41.22;;;;;;;8.78;100.00;100561.00;6117609;23;20006;-80
2022/11/15 06:37:35;;;;;;;71.90;41.08;;;;;;;8.77;100.00;100568.13;6119021;23;20065;-82
2022/11/15 06:40:00;;;;;;;73.65;39.28;;;;;;;8.71;100.00;100561.31;6091812;23;20487;-81
2022/11/15 06:42:25;;;;;;;70.72;39.95;;;;;;;8.71;100.00;100566.63;6092778;23;20493;-82
2022/11/15 06:44:51;;;;;;;73.60;38.78;;;;;;;8.63;100.00;100568.78;6115958;23;20013;-81
2022/11/15 06:47:16;;;;;;;66.05;38.75;;;;;;;8.58;100.00;100559.31;6118298;23;20041;-81
2022/11/15 06:49:41;;;;;;;66.35;37.28;;;;;;;8.52;100.00;100560.44;6118903;23;20049;-81
2022/11/15 06:52:06;;;;;;;63.97;36.88;;;;;;;8.54;100.00;100566.56;6119987;23;20010;-80
2022/11/15 06:54:32;;;;;;;69.85;37.03;;;;;;;8.52;100.00;100570.22;6118743;23;20045;-82
2022/11/15 06:56:57;;;;;;;65.55;36.97;;;;;;;8.40;100.00;100561.91;6120268;23;20017;-82
2022/11/15 06:59:22;;;;;;;65.70;36.40;;;;;;;8.45;100.00;100567.84;6119153;23;20360;-82
2022/11/15 07:01:49;;;;;;;69.00;36.38;;;;;;;8.41;100.00;100568.94;6121759;23;20009;-81
2022/11/15 07:04:14;;;;;;;63.67;35.47;;;;;;;8.42;100.00;100572.44;6120667;23;20395;-81
2022/11/15 07:06:39;;;;;;;62.92;36.72;;;;;;;8.52;100.00;100572.84;6095071;23;20309;-81
2022/11/15 07:09:05;;;;;;;70.07;37.28;;;;;;;8.52;100.00;100583.47;6120910;23;19998;-82
2022/11/15 07:11:30;;;;;;;68.30;37.42;;;;;;;8.54;100.00;100586.94;6123289;23;20026;-81
2022/11/15 07:13:55;;;;;;;68.03;37.90;;;;;;;8.51;100.00;100585.25;6119582;23;20093;-80
2022/11/15 07:16:21;;;;;;;67.70;37.42;;;;;;;8.43;100.00;100574.16;6116464;23;20038;-82
2022/11/15 07:18:46;;;;;;;64.25;37.17;;;;;;;8.48;100.00;100593.34;6117169;23;20010;-81
2022/11/15 07:21:12;;;;;;;62.33;35.20;;;;;;;8.48;100.00;100586.28;6118512;23;20013;-81
2022/11/15 07:23:38;;;;;;;69.43;36.50;;;;;;;8.50;100.00;100583.56;6120213;23;20082;-81
2022/11/15 07:26:04;;;;;;;63.63;34.75;;;;;;;8.46;100.00;100592.59;6118374;23;20013;-81
2022/11/15 07:28:29;;;;;;;58.35;33.53;;;;;;;8.46;100.00;100592.59;6118289;23;20001;-81
2022/11/15 07:30:55;;;;;;;61.33;34.38;;;;;;;8.48;100.00;100598.66;6117162;23;20006;-81
2022/11/15 07:33:20;;;;;;;62.00;34.17;;;;;;;8.47;100.00;100600.47;6118044;23;20081;-82
2022/11/15 07:35:48;;;;;;;57.50;31.98;;;;;;;8.49;100.00;100603.06;6117179;23;20092;-82
2022/11/15 07:38:14;;;;;;;53.42;30.15;;;;;;;8.47;100.00;100594.28;6118708;23;20033;-82
2022/11/15 07:40:40;;;;;;;53.50;30.42;;;;;;;8.51;100.00;100602.97;6121440;23;20029;-83
2022/11/15 07:43:07;;;;;;;54.58;31.27;;;;;;;8.49;100.00;100597.75;6120832;23;20417;-82
2022/11/15 07:45:35;;;;;;;51.67;29.15;;;;;;;8.52;100.00;100597.59;6120677;23;20507;-81
2022/11/15 07:48:01;;;;;;;49.25;29.73;;;;;;;8.44;100.00;100592.66;6120951;23;20522;-80
2022/11/15 07:50:29;;;;;;;50.45;28.60;;;;;;;8.43;100.00;100592.72;6121141;23;20002;-81
2022/11/15 07:52:56;;;;;;;49.67;28.38;;;;;;;8.27;100.00;100567.78;6119375;23;20029;-82
2022/11/15 07:55:22;;;;;;;48.70;27.85;;;;;;;8.34;100.00;100590.47;6119307;23;20420;-81
2022/11/15 07:57:48;;;;;;;52.17;28.23;;;;;;;8.34;100.00;100588.66;6124151;23;20421;-80
2022/11/15 08:00:14;;;;;;;44.53;27.63;;;;;;;8.35;100.00;100581.56;6119388;23;20014;-79
2022/11/15 08:02:39;;;;;;;45.95;26.67;;;;;;;8.39;100.00;100588.47;6118806;23;20009;-81
2022/11/15 08:05:05;;;;;;;47.65;26.83;;;;;;;8.39;100.00;100592.00;6120193;23;20018;-82
2022/11/15 08:07:31;;;;;;;45.03;26.00;;;;;;;8.39;100.00;100596.44;6120726;23;20360;-83
2022/11/15 08:09:57;;;;;;;45.35;25.58;;;;;;;8.36;100.00;100599.19;6120642;23;20058;-82
2022/11/15 08:12:23;;;;;;;44.33;25.88;;;;;;;8.39;100.00;100599.09;6122252;23;20012;-82
2022/11/15 08:14:49;;;;;;;45.38;25.67;;;;;;;8.38;100.00;100603.53;6120587;23;20077;-82
2022/11/15 08:17:14;;;;;;;42.67;25.70;;;;;;;8.37;100.00;100609.78;6122341;23;20388;-81
2022/11/15 08:19:39;;;;;;;42.78;24.05;;;;;;;8.36;100.00;100617.75;6121740;23;20044;-82
2022/11/15 08:22:05;;;;;;;40.22;23.75;;;;;;;8.37;100.00;100607.13;6121653;23;20018;-82
2022/11/15 08:24:30;;;;;;;36.67;23.70;;;;;;;8.30;100.00;100605.63;6118723;23;20021;-82
2022/11/15 08:26:55;;;;;;;43.72;24.02;;;;;;;8.29;100.00;100605.72;6122082;23;20012;-82
2022/11/15 08:29:21;;;;;;;37.35;22.70;;;;;;;8.28;100.00;100607.50;6122166;23;20006;-81
2022/11/15 08:31:46;;;;;;;37.60;21.50;;;;;;;8.29;100.00;100601.28;6120980;23;20033;-84
2022/11/15 08:34:11;;;;;;;37.80;22.00;;;;;;;8.28;100.00;100591.59;6119054;23;20060;-82
2022/11/15 08:36:37;;;;;;;34.05;21.05;;;;;;;8.25;100.00;100589.09;6120470;23;20082;-83
2022/11/15 08:39:02;;;;;;;32.08;19.80;;;;;;;8.24;100.00;100572.31;6120983;23;20009;-82
2022/11/15 08:41:35;;;;;;;32.78;19.27;;;;;;;8.23;100.00;100582.97;6120318;23;20006;-82
2022/11/15 08:44:01;;;;;;;31.13;19.85;;;;;;;8.21;100.00;100572.44;6093815;23;20001;-82
2022/11/15 08:46:26;;;;;;;31.70;20.52;;;;;;;8.28;100.00;100573.03;6121367;23;20016;-81
2022/11/15 08:48:51;;;;;;;23.77;18.13;;;;;;;8.31;100.00;100575.53;6121696;23;20064;-82
2022/11/15 08:51:16;;;;;;;28.98;19.20;;;;;;;8.38;100.00;100578.81;6121268;23;20065;-81
2022/11/15 08:53:42;;;;;;;26.85;17.83;;;;;;;8.42;100.00;100565.34;6119687;23;20432;-82
2022/11/15 08:56:09;;;;;;;25.38;18.35;;;;;;;8.50;100.00;100562.34;6121884;23;20093;-82
2022/11/15 08:58:35;;;;;;;25.92;17.65;;;;;;;8.55;100.00;100565.63;6122091;23;20044;-82
2022/11/15 09:01:00;;;;;;;27.45;17.27;;;;;;;8.60;100.00;100562.75;6122276;23;20006;-81
2022/11/15 09:03:26;;;;;;;24.35;16.65;;;;;;;8.64;100.00;100567.84;6120002;23;20337;-82
2022/11/15 09:05:59;;;;;;;22.52;15.70;;;;;;;8.63;100.00;100563.47;6120691;23;20010;-82
2022/11/15 09:08:28;;;;;;;20.33;15.25;;;;;;;8.71;100.00;100571.06;6121734;23;20024;-82
2022/11/15 09:10:54;;;;;;;21.92;15.32;;;;;;;8.73;100.00;100559.44;6121817;23;20056;-81
2022/11/15 09:13:19;;;;;;;22.40;17.00;;;;;;;8.78;100.00;100545.97;6094553;23;20014;-82
2022/11/15 09:15:44;;;;;;;20.05;16.00;;;;;;;8.92;100.00;100542.66;6121774;23;20013;-81
2022/11/15 09:18:10;;;;;;;21.08;15.30;;;;;;;9.00;100.00;100544.94;6120405;23;20034;-81
2022/11/15 09:20:35;;;;;;;21.98;16.52;;;;;;;9.03;100.00;100545.66;6122047;23;20058;-81
2022/11/15 09:23:02;;;;;;;18.45;15.43;;;;;;;9.02;100.00;100535.06;6118124;23;20027;-82
2022/11/15 09:25:28;;;;;;;19.23;13.93;;;;;;;9.01;100.00;100536.03;6122444;23;20029;-81
2022/11/15 09:27:53;;;;;;;16.42;12.82;;;;;;;8.99;100.00;100528.16;6125141;23;20005;-82
2022/11/15 09:30:19;;;;;;;18.23;13.55;;;;;;;8.96;100.00;100529.16;6123119;23;20010;-81
2022/11/15 09:32:44;;;;;;;13.75;11.82;;;;;;;8.86;100.00;100519.03;6120008;23;20056;-82
2022/11/15 09:35:09;;;;;;;11.82;10.00;;;;;;;8.92;100.00;100532.03;6120444;23;20009;-81
2022/11/15 09:37:34;;;;;;;13.00;9.13;;;;;;;8.86;100.00;100524.34;6120591;23;20104;-81
2022/11/15 09:40:00;;;;;;;9.82;8.77;;;;;;;8.85;100.00;100510.22;6121669;23;20006;-80
2022/11/15 09:42:55;;;;;;;9.60;7.55;;;;;;;8.81;100.00;100534.34;6123026;23;20009;-81
2022/11/15 09:45:28;;;;;;;8.48;6.10;;;;;;;8.69;100.00;100515.44;6123042;23;20010;-81
2022/11/15 09:48:17;;;;;;;8.18;5.90;;;;;;;8.66;100.00;100520.88;6125081;23;20010;-81
2022/11/15 09:50:47;;;;;;;5.63;4.80;;;;;;;8.64;100.00;100517.44;6122248;23;20002;-82
2022/11/15 09:53:39;;;;;;;8.00;4.32;;;;;;;8.61;100.00;100517.59;6120391;23;20101;-82
2022/11/15 09:56:19;;;;;;;5.03;3.85;;;;;;;8.57;100.00;100516.03;6083683;23;20014;-81
2022/11/15 09:59:06;;;;;;;5.50;3.15;;;;;;;8.52;100.00;100506.53;6123237;23;20014;-81
2022/11/15 10:01:42;;;;;;;6.65;3.38;;;;;;;8.51;100.00;100513.66;6123142;23;20005;-81
2022/11/15 10:04:08;;;;;;;5.95;3.20;;;;;;;8.50;100.00;100514.59;6121267;23;20018;-81
2022/11/15 10:06:40;;;;;;;7.32;3.10;;;;;;;8.51;100.00;100515.44;6121379;23;20013;-81
2022/11/15 10:09:05;;;;;;;5.00;3.50;;;;;;;8.52;100.00;100509.19;6119914;23;20002;-82
2022/11/15 10:11:34;;;;;;;4.37;2.80;;;;;;;8.55;100.00;100506.41;6120576;23;20012;-81
2022/11/15 10:14:04;;;;;;;5.75;2.75;;;;;;;8.56;100.00;100502.81;6120284;23;20712;-81
2022/11/15 10:16:41;;;;;;;4.03;2.88;;;;;;;8.62;100.00;100510.50;6093769;23;20005;-80
2022/11/15 10:19:14;;;;;;;5.97;3.10;;;;;;;8.64;100.00;100505.97;6120022;23;20093;-80
2022/11/15 10:21:51;;;;;;;6.07;3.00;;;;;;;8.70;100.00;100501.22;6121141;23;20081;-81
2022/11/15 10:24:24;;;;;;;5.22;3.10;;;;;;;8.77;100.00;100508.88;6120042;23;20014;-82
2022/11/15 10:26:50;;;;;;;5.25;2.65;;;;;;;8.83;100.00;100501.50;6121463;23;20006;-82
2022/11/15 10:29:23;;;;;;;7.18;3.17;;;;;;;8.88;100.00;100503.91;6121523;23;20002;-80
2022/11/15 10:31:49;;;;;;;5.40;3.15;;;;;;;8.95;100.00;100495.56;6120436;23;20040;-81
2022/11/15 10:34:18;;;;;;;5.18;2.45;;;;;;;8.97;100.00;100493.69;6120141;23;20014;-82
2022/11/15 10:36:55;;;;;;;3.58;2.30;;;;;;;9.07;100.00;100495.88;6120050;23;20013;-81
2022/11/15 10:39:21;;;;;;;6.25;2.85;;;;;;;9.16;100.00;100484.81;6118594;23;20433;-80
2022/11/15 10:41:46;;;;;;;4.93;2.90;;;;;;;9.29;100.00;100485.06;6119144;23;20002;-82
2022/11/15 10:44:25;;;;;;;7.13;2.70;;;;;;;9.38;100.00;100482.78;6117175;23;20009;-80
2022/11/15 10:46:53;;;;;;;4.45;2.33;;;;;;;9.47;100.00;100476.97;6118680;23;20081;-81
2022/11/15 10:49:28;;;;;;;5.15;2.17;;;;;;;9.45;100.00;100470.91;6120274;23;20041;-84
2022/11/15 10:52:11;;;;;;;5.95;2.30;;;;;;;9.46;100.00;100469.97;6120101;23;20005;-83
2022/11/15 10:54:47;;;;;;;6.13;2.30;;;;;;;9.44;100.00;100469.16;6119996;23;20029;-82
2022/11/15 10:57:19;;;;;;;8.45;2.53;;;;;;;9.38;100.00;100472.16;6122239;23;20014;-84
2022/11/15 11:00:20;;;;;;;3.90;2.45;;;;;;;9.36;100.00;100463.38;6092535;23;20018;-81
2022/11/15 11:03:20;;;;;;;3.25;2.20;;;;;;;9.31;100.00;100465.44;6057345;23;20014;-82
2022/11/15 11:05:45;;;;;;;5.82;3.10;;;;;;;9.30;100.00;100441.63;6059818;23;20026;-81
2022/11/15 11:08:10;;;;;;;5.03;2.80;;;;;;;9.28;100.00;100451.44;6059639;23;20007;-82
2022/11/15 11:10:37;;;;;;;4.50;2.40;;;;;;;9.27;100.00;100452.38;6058770;23;20015;-82
2022/11/15 11:13:22;;;;;;;3.50;2.17;;;;;;;9.27;100.00;100447.06;6057332;23;20011;-80
2022/11/15 11:15:56;;;;;;;6.00;2.00;;;;;;;9.24;100.00;100437.50;6034067;23;20045;-81
2022/11/15 11:18:31;;;;;;;4.57;2.40;;;;;;;9.29;100.00;100437.25;6061064;23;20133;-83
2022/11/15 11:21:05;;;;;;;7.05;2.88;;;;;;;9.33;100.00;100426.38;6062379;23;20093;-83
2022/11/15 11:23:45;;;;;;;4.03;1.90;;;;;;;9.51;99.94;100413.06;6061315;23;20007;-84
2022/11/15 11:26:41;;;;;;;5.22;2.13;;;;;;;9.75;100.00;100414.41;6061795;23;20014;-82
2022/11/15 11:29:32;;;;;;;5.47;2.22;;;;;;;10.05;99.30;100405.69;6061568;23;20030;-84
2022/11/15 11:32:45;;;;;;;4.82;2.33;;;;;;;10.31;98.10;100402.44;6062211;23;20014;-82